Ship Status Report: callsign 3FOW6

sailwx.info

Track history (hours):
 
Tides and Currents Weather Stations Pressure Air Temp Water Temp Dewpoint Dewpoint Depression Visibility Wind Speed Wind Dir Waves Ship Positions

Callsign 3FOW6 (name unknown)

Last reported at 2015-Dec-08 05:27 UTC. Time now 2016-May-05 10:26 UTC.
Position N 38°51' E 122°02'.
Warning: this ship's position is months out of date.

Date/timePositionNaut miles runAvg speedWind from/ knotsBaromVisibWave heightAir tempDewpointWater temp
2015-Dec-08 05:27N 38°51' E 122°02'3 1.0
2015-Dec-08 02:24N 38°53' E 122°00'0 0.0
2015-Dec-07 23:18N 38°53' E 121°60'0 0.0
2015-Dec-07 22:18N 38°53' E 121°60'0 0.0
2015-Dec-07 21:33N 38°53' E 121°60'0 0.0
2015-Dec-07 19:24N 38°53' E 121°60'0 0.0
2015-Dec-07 18:30N 38°53' E 121°60'0 0.0
2015-Dec-07 17:33N 38°53' E 121°60'4 1.4
2015-Dec-07 14:33N 38°51' E 121°55'8 8.1
2015-Dec-07 13:34N 38°44' E 121°51'8 8.3
2015-Dec-07 12:32N 38°37' E 121°45'  
Track history (hours):
 
Tides and Currents Weather Stations Pressure Air Temp Water Temp Dewpoint Dewpoint Depression Visibility Wind Speed Wind Dir Waves Ship Positions

Callsign 3FOW6 (name unknown)

Last reported at 2015-Dec-08 05:27 UTC. Time now 2016-May-05 10:26 UTC.
Position N 38°51' E 122°02'.
Warning: this ship's position is months out of date.

Date/timePositionNaut miles runAvg speedWind from/ knotsBaromVisibWave heightAir tempDewpointWater temp
2015-Dec-08 05:27N 38°51' E 122°02'3 1.0
2015-Dec-08 02:24N 38°53' E 122°00'0 0.0
2015-Dec-07 23:18N 38°53' E 121°60'0 0.0
2015-Dec-07 22:18N 38°53' E 121°60'0 0.0
2015-Dec-07 21:33N 38°53' E 121°60'0 0.0
2015-Dec-07 19:24N 38°53' E 121°60'0 0.0
2015-Dec-07 18:30N 38°53' E 121°60'0 0.0
2015-Dec-07 17:33N 38°53' E 121°60'4 1.4
2015-Dec-07 14:33N 38°51' E 121°55'8 8.1
2015-Dec-07 13:34N 38°44' E 121°51'8 8.3
2015-Dec-07 12:32N 38°37' E 121°45'  

Dump ship's entire track history